Time;durP1;ratioP1;P1;durP2;ratioP2;P2;SDS_P1;SDS_P2;PMS_P1;PMS_P2;Temp;Humidity;BMP_temperature;BMP_pressure;BME280_temperature;BME280_humidity;BME280_pressure;Samples;Min_cycle;Max_cycle;Signal;HPM_P1;HPM_P2
2022/06/27 00:01:43;;;;;;;;;;;;;;;17.30;77.34;101032.53;5044385;28;19921;-78
2022/06/27 00:04:08;;;;;;;;;;;;;;;17.29;77.16;101028.22;5042000;28;19968;-78
2022/06/27 00:06:33;;;;;;;;;;;;;;;17.30;77.79;101027.28;5042636;28;19962;-77
2022/06/27 00:08:59;;;;;;;;;;;;;;;17.28;78.37;101021.25;5043772;28;20897;-76
2022/06/27 00:11:24;;;;;;;;;;;;;;;17.27;78.55;101016.91;5044697;28;19932;-76
2022/06/27 00:13:49;;;;;;;;;;;;;;;17.26;78.30;101007.34;5027754;28;20011;-77
2022/06/27 00:16:15;;;;;;;;;;;;;;;17.25;78.15;101009.13;5035406;28;19947;-77
2022/06/27 00:18:40;;;;;;;;;;;;;;;17.26;78.25;101004.72;5037515;28;19929;-77
2022/06/27 00:21:06;;;;;;;;;;;;;;;17.27;78.05;101007.28;5042581;28;19929;-76
2022/06/27 00:23:31;;;;;;;;;;;;;;;17.22;78.04;101021.53;5043736;28;19975;-76
2022/06/27 00:25:56;;;;;;;;;;;;;;;17.21;77.69;101028.56;5023240;28;19987;-77
2022/06/27 00:28:22;;;;;;;;;;;;;;;17.22;77.84;101024.16;5044572;28;20957;-77
2022/06/27 00:30:47;;;;;;;;;;;;;;;17.20;78.24;101024.25;5044158;28;19924;-77
2022/06/27 00:33:12;;;;;;;;;;;;;;;17.20;78.25;101020.75;5030478;28;20003;-78
2022/06/27 00:35:38;;;;;;;;;;;;;;;17.22;77.97;101021.53;5033252;28;19920;-77
2022/06/27 00:38:03;;;;;;;;;;;;;;;17.23;78.15;101020.63;5046223;28;20495;-78
2022/06/27 00:40:28;;;;;;;;;;;;;;;17.27;78.11;101023.03;5044637;28;20388;-78
2022/06/27 00:42:54;;;;;;;;;;;;;;;17.24;78.34;101017.06;5040083;28;19985;-78
2022/06/27 00:45:19;;;;;;;;;;;;;;;17.21;78.32;101017.19;5046615;28;19970;-78
2022/06/27 00:47:44;;;;;;;;;;;;;;;17.20;78.58;101016.38;5043247;28;19928;-78
2022/06/27 00:50:10;;;;;;;;;;;;;;;17.21;78.29;101025.06;5046807;28;19940;-78
2022/06/27 00:52:36;;;;;;;;;;;;;;;17.22;78.40;101029.41;5047421;28;20063;-77
2022/06/27 00:55:02;;;;;;;;;;;;;;;17.16;78.41;101020.03;5037780;28;19917;-77
2022/06/27 00:57:28;;;;;;;;;;;;;;;17.18;78.58;101023.44;5045883;28;20371;-78
2022/06/27 00:59:54;;;;;;;;;;;;;;;17.19;78.45;101017.28;5047781;28;20402;-78
2022/06/27 01:02:19;;;;;;;;;;;;;;;17.14;77.86;101005.28;5035675;28;19920;-77
2022/06/27 01:04:44;;;;;;;;;;;;;;;17.11;77.33;101008.03;5040472;28;20265;-77
2022/06/27 01:07:10;;;;;;;;;;;;;;;17.13;77.48;101007.03;5028982;28;20334;-77
2022/06/27 01:09:35;;;;;;;;;;;;;;;17.18;76.44;101015.56;5052812;28;19940;-77
2022/06/27 01:12:02;;;;;;;;;;;;;;;17.15;77.09;101009.59;5048808;28;19932;-78
2022/06/27 01:14:27;;;;;;;;;;;;;;;17.18;77.36;101006.81;5046721;28;20399;-77
2022/06/27 01:16:53;;;;;;;;;;;;;;;17.15;77.97;101005.19;5041681;28;19927;-77
2022/06/27 01:19:18;;;;;;;;;;;;;;;17.19;76.37;100998.91;5044794;28;20376;-77
2022/06/27 01:21:45;;;;;;;;;;;;;;;17.15;76.37;100994.69;5050440;28;20470;-77
2022/06/27 01:24:10;;;;;;;;;;;;;;;17.22;76.57;100997.91;5044136;28;19921;-77
2022/06/27 01:26:36;;;;;;;;;;;;;;;17.19;77.03;100992.78;5046322;28;19925;-77
2022/06/27 01:29:01;;;;;;;;;;;;;;;17.19;76.83;100993.66;5041071;28;19935;-77
2022/06/27 01:31:27;;;;;;;;;;;;;;;17.20;76.24;100991.88;5046278;28;19925;-77
2022/06/27 01:33:53;;;;;;;;;;;;;;;17.18;76.71;100986.69;5031177;28;19921;-77
2022/06/27 01:39:02;;;;;;;;;;;;;;;17.11;76.85;100995.78;5042809;28;19928;-77
2022/06/27 01:41:27;;;;;;;;;;;;;;;17.16;76.99;101001.66;5044997;28;19920;-76
2022/06/27 01:43:52;;;;;;;;;;;;;;;17.22;76.38;101013.66;5042315;28;19944;-77
2022/06/27 01:46:18;;;;;;;;;;;;;;;17.19;77.11;101004.16;5024191;28;20031;-77
2022/06/27 01:48:43;;;;;;;;;;;;;;;17.14;76.22;100995.63;5040377;28;19925;-77
2022/06/27 01:51:09;;;;;;;;;;;;;;;17.13;76.06;100987.81;5040310;28;19921;-77
2022/06/27 01:53:36;;;;;;;;;;;;;;;17.06;76.55;100985.47;5042005;28;20370;-77
2022/06/27 01:56:01;;;;;;;;;;;;;;;17.13;76.22;100974.69;5038291;28;20046;-76
2022/06/27 01:58:27;;;;;;;;;;;;;;;17.11;76.44;100969.53;5043216;28;20008;-76
2022/06/27 02:00:52;;;;;;;;;;;;;;;17.14;75.96;100976.41;5037645;28;19924;-77
2022/06/27 02:03:18;;;;;;;;;;;;;;;17.09;76.26;100963.47;5042297;28;19935;-79
2022/06/27 02:05:43;;;;;;;;;;;;;;;17.09;77.15;100966.09;5042324;28;19935;-79
2022/06/27 02:08:10;;;;;;;;;;;;;;;17.11;77.38;100963.41;5039757;28;21304;-79
2022/06/27 02:10:35;;;;;;;;;;;;;;;17.16;77.31;100970.16;5045064;28;19931;-79
2022/06/27 02:13:01;;;;;;;;;;;;;;;17.16;76.92;100972.78;5020599;28;20295;-78
2022/06/27 02:15:26;;;;;;;;;;;;;;;17.19;76.86;100979.66;5040136;28;19925;-77
2022/06/27 02:17:52;;;;;;;;;;;;;;;17.17;77.81;100981.50;5044688;28;19966;-77
2022/06/27 02:20:17;;;;;;;;;;;;;;;17.09;76.66;100971.34;5036470;28;19924;-77
2022/06/27 02:22:43;;;;;;;;;;;;;;;17.10;77.05;100962.56;5044685;28;19931;-77
2022/06/27 02:25:08;;;;;;;;;;;;;;;17.17;76.54;100960.50;5043697;28;19932;-77
2022/06/27 02:27:35;;;;;;;;;;;;;;;17.14;76.28;100969.38;5047025;28;20441;-77
2022/06/27 02:30:00;;;;;;;;;;;;;;;17.10;77.21;100974.81;5027151;28;20023;-77
2022/06/27 02:32:27;;;;;;;;;;;;;;;17.16;77.43;100971.91;5040115;28;20028;-77
2022/06/27 02:34:55;;;;;;;;;;;;;;;17.15;77.82;100967.59;5042061;28;19925;-77
2022/06/27 02:37:20;;;;;;;;;;;;;;;17.14;78.44;100960.66;5041999;28;19974;-77
2022/06/27 02:39:46;;;;;;;;;;;;;;;17.14;78.35;100955.41;5045999;28;19929;-78
2022/06/27 02:42:13;;;;;;;;;;;;;;;17.11;77.83;100955.53;5039434;28;19932;-78
2022/06/27 02:44:42;;;;;;;;;;;;;;;17.12;78.39;100946.72;5040069;28;19921;-77
2022/06/27 02:47:08;;;;;;;;;;;;;;;17.13;78.64;100944.03;5046152;28;19920;-77
2022/06/27 02:49:33;;;;;;;;;;;;;;;17.13;78.34;100937.94;5023247;28;20391;-77
2022/06/27 02:52:01;;;;;;;;;;;;;;;17.13;78.40;100949.28;5039128;28;20895;-77
2022/06/27 02:54:30;;;;;;;;;;;;;;;17.12;77.94;100952.81;5048569;28;20322;-77
2022/06/27 02:57:00;;;;;;;;;;;;;;;17.13;78.29;100951.91;5044931;28;19954;-77
2022/06/27 02:59:29;;;;;;;;;;;;;;;17.15;78.14;100944.81;5038383;28;19963;-77
2022/06/27 03:01:56;;;;;;;;;;;;;;;17.13;78.07;100953.69;5043659;28;19921;-77
2022/06/27 03:04:21;;;;;;;;;;;;;;;17.11;78.40;100963.41;5046040;28;19947;-77
2022/06/27 03:06:49;;;;;;;;;;;;;;;17.11;78.10;100964.28;5026124;28;20503;-77
2022/06/27 03:09:15;;;;;;;;;;;;;;;17.11;78.13;100960.78;5045852;28;19928;-77
2022/06/27 03:11:40;;;;;;;;;;;;;;;17.13;77.83;100966.81;5044801;28;19947;-77
2022/06/27 03:14:06;;;;;;;;;;;;;;;17.18;77.75;100956.94;5042864;28;19944;-77
2022/06/27 03:16:32;;;;;;;;;;;;;;;17.17;77.69;100955.25;5028824;28;20461;-77
2022/06/27 03:18:57;;;;;;;;;;;;;;;17.17;76.84;100950.88;5047457;28;20010;-77
2022/06/27 03:21:23;;;;;;;;;;;;;;;17.14;77.41;100948.38;5049370;28;20388;-77
2022/06/27 03:23:49;;;;;;;;;;;;;;;17.18;77.73;100956.94;5039713;28;19928;-78
2022/06/27 03:26:14;;;;;;;;;;;;;;;17.11;77.96;100968.66;5043058;28;19931;-77
2022/06/27 03:28:40;;;;;;;;;;;;;;;17.11;78.11;100964.28;5046615;28;19932;-77
2022/06/27 03:31:05;;;;;;;;;;;;;;;17.11;78.11;100963.41;5032313;28;20623;-78
2022/06/27 03:33:31;;;;;;;;;;;;;;;17.12;77.43;100968.56;5044137;28;19925;-78
2022/06/27 03:35:56;;;;;;;;;;;;;;;17.07;77.21;100970.56;5043749;28;19942;-77
2022/06/27 03:38:21;;;;;;;;;;;;;;;17.12;77.05;100986.09;5047639;28;20023;-78
2022/06/27 03:40:47;;;;;;;;;;;;;;;17.17;76.11;100990.25;5030860;28;19947;-75
2022/06/27 03:43:13;;;;;;;;;;;;;;;17.15;76.43;100992.06;5046455;28;19965;-76
2022/06/27 03:45:38;;;;;;;;;;;;;;;17.18;75.43;100988.44;5045206;28;20024;-76
2022/06/27 03:48:03;;;;;;;;;;;;;;;17.12;75.10;100979.06;5043805;28;20851;-76
2022/06/27 03:50:29;;;;;;;;;;;;;;;17.08;76.24;100985.41;5046672;28;19921;-76
2022/06/27 03:52:54;;;;;;;;;;;;;;;17.08;77.16;100989.78;5044675;28;19932;-75
2022/06/27 03:55:20;;;;;;;;;;;;;;;17.10;76.85;100987.94;5045722;28;20033;-76
2022/06/27 03:57:49;;;;;;;;;;;;;;;17.13;77.10;100988.66;5028704;28;20067;-76
2022/06/27 04:00:15;;;;;;;;;;;;;;;17.09;77.44;100984.47;5040663;28;19920;-76
2022/06/27 04:02:40;;;;;;;;;;;;;;;17.04;78.12;100991.69;5042936;28;19948;-76
2022/06/27 04:05:06;;;;;;;;;;;;;;;17.08;77.89;100989.78;5028021;28;20418;-76
2022/06/27 04:07:31;;;;;;;;;;;;;;;17.07;77.47;100991.56;5044827;28;19929;-76
2022/06/27 04:09:57;;;;;;;;;;;;;;;17.01;78.65;100986.59;5043105;28;19918;-77
2022/06/27 04:12:22;;;;;;;;;;;;;;;16.98;78.61;100979.69;5042977;28;19959;-77
2022/06/27 04:14:48;;;;;;;;;;;;;;;17.02;78.40;100985.69;5044970;28;19925;-77
2022/06/27 04:17:13;;;;;;;;;;;;;;;17.03;77.22;100985.59;5048614;28;20407;-77
2022/06/27 04:19:39;;;;;;;;;;;;;;;16.96;78.34;100978.94;5044995;28;20007;-77
2022/06/27 04:22:04;;;;;;;;;;;;;;;16.97;78.64;100977.97;5046287;28;19996;-79
2022/06/27 04:24:29;;;;;;;;;;;;;;;16.97;78.61;100975.38;5027442;28;19947;-79
2022/06/27 04:26:55;;;;;;;;;;;;;;;16.99;78.65;100981.41;5039952;28;19952;-79
2022/06/27 04:29:20;;;;;;;;;;;;;;;17.03;78.53;100982.09;5044446;28;19928;-80
2022/06/27 04:31:46;;;;;;;;;;;;;;;17.05;78.65;100989.03;5026061;28;20018;-79
2022/06/27 04:34:12;;;;;;;;;;;;;;;16.96;78.88;100978.94;5045048;28;20349;-76
2022/06/27 04:36:38;;;;;;;;;;;;;;;16.99;78.73;100959.56;5044601;28;19928;-76
2022/06/27 04:39:03;;;;;;;;;;;;;;;16.93;78.88;100944.94;5044105;28;19925;-76
2022/06/27 04:41:29;;;;;;;;;;;;;;;16.99;77.58;100930.69;5048126;28;19927;-79
2022/06/27 04:43:54;;;;;;;;;;;;;;;17.09;77.92;100945.09;5041773;28;19963;-79
2022/06/27 04:46:20;;;;;;;;;;;;;;;17.09;77.95;100952.97;5045330;28;20075;-76
2022/06/27 04:48:46;;;;;;;;;;;;;;;17.09;78.17;100952.97;5044840;28;19935;-76
2022/06/27 04:51:13;;;;;;;;;;;;;;;17.03;78.39;100934.88;5040482;28;19925;-77
2022/06/27 04:53:38;;;;;;;;;;;;;;;17.04;78.27;100941.84;5044886;28;20024;-77
2022/06/27 04:56:04;;;;;;;;;;;;;;;17.01;77.95;100948.06;5041597;28;20043;-77
2022/06/27 04:58:30;;;;;;;;;;;;;;;17.01;78.87;100955.94;5047613;28;19928;-77
2022/06/27 05:00:55;;;;;;;;;;;;;;;17.05;78.64;100930.41;5044093;28;19921;-77
2022/06/27 05:03:23;;;;;;;;;;;;;;;17.12;78.23;100931.81;5047827;28;19921;-79
2022/06/27 05:05:50;;;;;;;;;;;;;;;17.14;78.26;100932.63;5048887;28;20011;-79
2022/06/27 05:08:15;;;;;;;;;;;;;;;17.16;78.25;100933.41;5053142;28;19924;-80
2022/06/27 05:10:40;;;;;;;;;;;;;;;17.15;78.75;100930.84;5041517;28;19931;-79
2022/06/27 05:13:05;;;;;;;;;;;;;;;17.16;77.65;100925.53;5044499;28;19944;-79
2022/06/27 05:15:31;;;;;;;;;;;;;;;17.15;77.23;100917.72;5044948;28;19925;-79
2022/06/27 05:17:56;;;;;;;;;;;;;;;17.17;77.49;100916.75;5043006;28;19928;-79
2022/06/27 05:20:22;;;;;;;;;;;;;;;17.16;77.36;100914.16;5042462;28;20016;-79
2022/06/27 05:22:47;;;;;;;;;;;;;;;17.20;77.42;100908.72;5038207;28;20415;-79
2022/06/27 05:25:13;;;;;;;;;;;;;;;17.18;77.88;100907.94;5043136;28;20409;-79
2022/06/27 05:27:38;;;;;;;;;;;;;;;17.30;77.34;100917.00;5050639;28;19924;-79
2022/06/27 05:30:05;;;;;;;;;;;;;;;17.33;77.06;100937.88;5026435;28;20352;-80
2022/06/27 05:32:30;;;;;;;;;;;;;;;17.33;77.62;100943.13;5043353;28;19904;-78
2022/06/27 05:34:56;;;;;;;;;;;;;;;17.31;78.20;100937.09;5050345;28;19921;-78
2022/06/27 05:37:21;;;;;;;;;;;;;;;17.38;77.85;100934.09;5051492;28;19925;-77
2022/06/27 05:39:46;;;;;;;;;;;;;;;17.33;78.21;100927.38;5043130;28;19924;-78
2022/06/27 05:42:12;;;;;;;;;;;;;;;17.28;77.26;100929.38;5046089;28;19929;-78
2022/06/27 05:44:37;;;;;;;;;;;;;;;17.24;77.21;100914.66;5047898;28;19932;-78
2022/06/27 05:47:03;;;;;;;;;;;;;;;17.24;77.52;100915.53;5049597;28;19932;-78
2022/06/27 05:49:28;;;;;;;;;;;;;;;17.32;77.78;100925.69;5043342;28;20374;-78
2022/06/27 05:51:55;;;;;;;;;;;;;;;17.33;77.66;100932.63;5042552;28;19924;-78
2022/06/27 05:54:24;;;;;;;;;;;;;;;17.31;77.63;100943.22;5042332;28;19960;-78
2022/06/27 05:56:49;;;;;;;;;;;;;;;17.36;78.12;100946.47;5030601;28;19924;-79
2022/06/27 05:59:16;;;;;;;;;;;;;;;17.32;77.40;100937.00;5024896;28;20425;-79
2022/06/27 06:01:42;;;;;;;;;;;;;;;17.37;77.76;100952.56;5043211;28;20392;-79
2022/06/27 06:04:08;;;;;;;;;;;;;;;17.39;77.67;100958.59;5042811;28;19926;-77
2022/06/27 06:06:33;;;;;;;;;;;;;;;17.37;77.83;100979.69;5043325;28;19925;-76
2022/06/27 06:08:59;;;;;;;;;;;;;;;17.30;77.91;100991.38;5044082;28;20399;-79
2022/06/27 06:11:25;;;;;;;;;;;;;;;17.33;78.15;100987.75;5026488;28;20021;-79
2022/06/27 06:13:52;;;;;;;;;;;;;;;17.34;77.79;100994.72;5039025;28;20392;-80
2022/06/27 06:16:19;;;;;;;;;;;;;;;17.36;77.86;100993.72;5044474;28;19928;-79
2022/06/27 06:18:47;;;;;;;;;;;;;;;17.28;77.94;101002.88;5038203;28;19927;-80
2022/06/27 06:21:13;;;;;;;;;;;;;;;17.33;77.56;101009.63;5027851;28;20323;-80
2022/06/27 06:23:39;;;;;;;;;;;;;;;17.33;78.20;101014.03;5046780;28;19975;-80
2022/06/27 06:26:04;;;;;;;;;;;;;;;17.28;77.37;101011.63;5048154;28;20338;-79
2022/06/27 06:28:31;;;;;;;;;;;;;;;17.30;78.00;101006.28;5011799;28;19948;-80
2022/06/27 06:30:57;;;;;;;;;;;;;;;17.31;77.03;101006.22;5046542;28;20315;-77
2022/06/27 06:33:22;;;;;;;;;;;;;;;17.40;75.99;101025.97;5040749;28;19919;-76
2022/06/27 06:35:47;;;;;;;;;;;;;;;17.37;76.06;101024.34;5047098;28;19921;-75
2022/06/27 06:38:13;;;;;;;;;;;;;;;17.29;76.06;101008.09;5046602;28;20364;-77
2022/06/27 06:40:39;;;;;;;;;;;;;;;17.38;74.24;101015.50;5051318;28;20439;-77
2022/06/27 06:43:04;;;;;;;;;;;;;;;17.48;74.83;101031.72;5040838;28;19968;-76
2022/06/27 06:45:30;;;;;;;;;;;;;;;17.49;76.03;101050.06;5047632;28;19913;-76
2022/06/27 06:47:55;;;;;;;;;;;;;;;17.53;74.95;101048.97;5042795;28;20137;-76
2022/06/27 06:50:21;;;;;;;;;;;;;;;17.52;75.05;101056.94;5040670;28;19929;-76
2022/06/27 06:52:50;;;;;;;;;;;;;;;17.50;75.42;101062.25;5014710;28;19929;-76
2022/06/27 06:55:17;;;;;;;;;;;;;;;17.48;75.45;101056.22;5027513;28;19924;-77
2022/06/27 06:57:43;;;;;;;;;;;;;;;17.46;75.93;101046.69;5049697;28;19932;-77
2022/06/27 07:00:09;;;;;;;;;;;;;;;17.50;76.07;101043.03;5045237;28;19925;-77
2022/06/27 07:02:35;;;;;;;;;;;;;;;17.44;75.39;101044.13;5045117;28;20315;-77
2022/06/27 07:05:02;;;;;;;;;;;;;;;17.48;75.42;101027.31;5027878;28;19917;-77
2022/06/27 07:07:28;;;;;;;;;;;;;;;17.49;75.27;101025.56;5046125;28;19928;-77
2022/06/27 07:09:54;;;;;;;;;;;;;;;17.51;74.06;101024.56;5044195;28;20276;-78
2022/06/27 07:12:19;;;;;;;;;;;;;;;17.49;73.93;101025.56;5042270;28;19920;-79
2022/06/27 07:14:48;;;;;;;;;;;;;;;17.48;74.14;101026.47;5043190;28;19921;-79
2022/06/27 07:17:13;;;;;;;;;;;;;;;17.55;74.44;101033.16;5046943;28;20299;-77
2022/06/27 07:19:39;;;;;;;;;;;;;;;17.55;75.17;101034.00;5047133;28;19925;-77
2022/06/27 07:22:08;;;;;;;;;;;;;;;17.57;75.29;101033.94;5042208;28;19954;-77
2022/06/27 07:24:33;;;;;;;;;;;;;;;17.48;73.81;101029.09;5037899;28;20391;-77
2022/06/27 07:26:59;;;;;;;;;;;;;;;17.55;74.54;101039.25;5051429;28;19950;-77
2022/06/27 07:29:26;;;;;;;;;;;;;;;17.46;74.29;101034.44;5047856;28;19947;-77
2022/06/27 07:31:52;;;;;;;;;;;;;;;17.48;75.33;101043.06;5046377;28;19924;-76
2022/06/27 07:34:21;;;;;;;;;;;;;;;17.50;73.95;101033.34;5038629;28;20529;-79
2022/06/27 07:36:46;;;;;;;;;;;;;;;17.51;74.04;101039.47;5047078;28;20083;-78
2022/06/27 07:39:12;;;;;;;;;;;;;;;17.50;74.95;101037.78;5041195;28;20011;-78
2022/06/27 07:41:37;;;;;;;;;;;;;;;17.50;75.25;101030.72;5052987;28;20571;-77
2022/06/27 07:44:03;;;;;;;;;;;;;;;17.44;74.80;101024.91;5045320;28;20404;-79
2022/06/27 07:46:29;;;;;;;;;;;;;;;17.46;74.75;101021.28;5048557;28;19925;-79
2022/06/27 07:48:55;;;;;;;;;;;;;;;17.50;74.52;101011.50;5042654;28;19998;-79
2022/06/27 07:51:20;;;;;;;;;;;;;;;17.55;73.73;101006.88;5047114;28;19919;-76
2022/06/27 07:53:47;;;;;;;;;;;;;;;17.50;74.05;101011.50;5051517;28;19927;-79
2022/06/27 07:56:14;;;;;;;;;;;;;;;17.58;74.51;101026.00;5031130;28;19925;-80
2022/06/27 07:58:39;;;;;;;;;;;;;;;17.65;74.52;101037.06;5046443;28;19927;-79
2022/06/27 08:01:06;;;;;;;;;;;;;;;17.69;74.28;101035.16;5049101;28;20011;-79
2022/06/27 08:03:41;;;;;;;;;;;;;;;17.68;74.70;101044.00;5043567;28;20372;-79
2022/06/27 08:06:10;;;;;;;;;;;;;;;17.70;75.26;101047.41;5051799;28;19928;-80
2022/06/27 08:08:39;;;;;;;;;;;;;;;17.68;73.80;101055.34;5044615;28;21001;-80
2022/06/27 08:11:06;;;;;;;;;;;;;;;17.66;74.49;101061.59;5040718;28;19940;-77
2022/06/27 08:13:32;;;;;;;;;;;;;;;17.70;75.39;101068.41;5048379;28;20006;-77
2022/06/27 08:15:58;;;;;;;;;;;;;;;17.70;75.46;101069.28;5028973;28;19913;-78
2022/06/27 08:18:24;;;;;;;;;;;;;;;17.65;73.90;101071.22;5051476;28;19970;-78
2022/06/27 08:20:50;;;;;;;;;;;;;;;17.65;73.78;101070.41;5046272;28;19930;-77
2022/06/27 08:23:16;;;;;;;;;;;;;;;17.65;73.26;101068.59;5043363;28;19932;-77
2022/06/27 08:25:42;;;;;;;;;;;;;;;17.64;73.40;101089.72;5045546;28;19925;-79
2022/06/27 08:28:09;;;;;;;;;;;;;;;17.64;73.45;101103.69;5036758;28;19920;-79
2022/06/27 08:30:34;;;;;;;;;;;;;;;17.65;73.67;101102.75;5048065;28;19968;-76
2022/06/27 08:33:00;;;;;;;;;;;;;;;17.64;73.61;101105.47;5045814;28;19956;-77
2022/06/27 08:35:26;;;;;;;;;;;;;;;17.63;73.67;101122.16;5044791;28;20400;-77
2022/06/27 08:37:52;;;;;;;;;;;;;;;17.58;74.88;101133.69;5064641;28;19927;-77
2022/06/27 08:40:18;;;;;;;;;;;;;;;17.57;73.78;101154.75;5058856;28;19920;-77
2022/06/27 08:42:47;;;;;;;;;;;;;;;17.61;74.30;101161.63;5052183;28;20334;-77
2022/06/27 08:45:17;;;;;;;;;;;;;;;17.53;75.13;101175.06;5043950;28;19963;-78
2022/06/27 08:47:43;;;;;;;;;;;;;;;17.55;73.92;101177.63;5035699;28;19976;-78
2022/06/27 08:50:10;;;;;;;;;;;;;;;17.50;73.68;101177.81;5034984;28;19979;-80
2022/06/27 08:52:40;;;;;;;;;;;;;;;17.54;73.77;101179.41;5048747;28;19999;-79
2022/06/27 08:55:07;;;;;;;;;;;;;;;17.57;73.64;101183.66;5025817;28;20022;-79
2022/06/27 08:57:32;;;;;;;;;;;;;;;17.51;73.73;101173.41;5044935;28;19916;-77
2022/06/27 08:59:59;;;;;;;;;;;;;;;17.51;73.40;101176.03;5039513;28;19925;-76
2022/06/27 09:02:26;;;;;;;;;;;;;;;17.51;73.36;101176.03;5048973;28;19920;-77
2022/06/27 09:04:55;;;;;;;;;;;;;;;17.43;73.42;101180.78;5049830;28;19924;-78
2022/06/27 09:07:21;;;;;;;;;;;;;;;17.50;73.17;101158.59;5043889;28;19931;-77
2022/06/27 09:09:46;;;;;;;;;;;;;;;17.41;74.29;101146.69;5047613;28;22127;-77
2022/06/27 09:12:12;;;;;;;;;;;;;;;17.52;73.59;101154.13;5050093;28;20598;-78
2022/06/27 09:14:42;;;;;;;;;;;;;;;17.43;73.97;101155.38;5045792;28;20350;-79
2022/06/27 09:17:15;;;;;;;;;;;;;;;17.45;74.64;101157.91;5038686;28;20431;-76
2022/06/27 09:19:47;;;;;;;;;;;;;;;17.54;74.08;101147.00;5035471;28;19920;-77
2022/06/27 09:22:17;;;;;;;;;;;;;;;17.57;74.33;101157.38;5045663;28;19936;-77
2022/06/27 09:25:01;;;;;;;;;;;;;;;17.57;74.01;101160.88;5043392;28;20217;-77
2022/06/27 09:27:37;;;;;;;;;;;;;;;17.64;73.49;101156.25;5051074;28;19932;-78
2022/06/27 09:30:21;;;;;;;;;;;;;;;17.63;72.84;101161.56;5044334;28;19929;-77
2022/06/27 09:32:49;;;;;;;;;;;;;;;17.63;72.75;101166.81;5042253;28;19925;-77
2022/06/27 09:35:25;;;;;;;;;;;;;;;17.64;73.16;101163.28;5041669;28;19971;-77
2022/06/27 09:37:51;;;;;;;;;;;;;;;17.62;72.17;101154.59;5029609;28;19946;-77
2022/06/27 09:40:16;;;;;;;;;;;;;;;17.78;73.19;101158.25;5040857;28;19924;-76
2022/06/27 09:42:43;;;;;;;;;;;;;;;17.85;73.65;101154.44;5045544;28;19943;-76
2022/06/27 09:45:09;;;;;;;;;;;;;;;17.91;72.48;101146.28;5029183;28;20342;-76
2022/06/27 09:47:35;;;;;;;;;;;;;;;17.91;71.28;101134.00;5046450;28;19944;-76
2022/06/27 09:50:01;;;;;;;;;;;;;;;17.98;71.77;101131.91;5046664;28;20683;-76
2022/06/27 09:52:26;;;;;;;;;;;;;;;18.04;71.02;101132.50;5042108;28;19931;-77
2022/06/27 09:54:53;;;;;;;;;;;;;;;17.99;70.20;101128.38;5037990;28;19925;-76
2022/06/27 09:57:20;;;;;;;;;;;;;;;17.99;70.10;101137.13;5047411;28;19925;-77
2022/06/27 09:59:47;;;;;;;;;;;;;;;18.04;70.53;101140.38;5042401;28;19929;-77
2022/06/27 10:02:16;;;;;;;;;;;;;;;17.99;71.35;101145.00;5028767;28;20540;-76
2022/06/27 10:04:43;;;;;;;;;;;;;;;18.01;70.41;101137.03;5028892;28;19920;-77
2022/06/27 10:07:09;;;;;;;;;;;;;;;18.05;70.41;101142.09;5023323;28;19928;-77
2022/06/27 10:09:38;;;;;;;;;;;;;;;18.08;70.21;101135.84;5047972;28;19983;-77
2022/06/27 10:12:18;;;;;;;;;;;;;;;18.11;71.04;101151.47;5045247;28;19971;-76
2022/06/27 10:14:44;;;;;;;;;;;;;;;18.03;69.62;101149.22;5038749;28;19970;-76
2022/06/27 10:17:13;;;;;;;;;;;;;;;18.07;69.46;101157.78;5046425;28;19933;-78
2022/06/27 10:19:58;;;;;;;;;;;;;;;18.11;69.65;101164.63;5045191;28;19925;-79
2022/06/27 10:22:26;;;;;;;;;;;;;;;18.18;70.52;101161.63;5040974;28;19943;-77
2022/06/27 10:24:52;;;;;;;;;;;;;;;18.25;71.15;101166.59;5049299;28;20435;-77
2022/06/27 10:27:43;;;;;;;;;;;;;;;18.27;71.17;101176.16;5046107;28;19928;-78
2022/06/27 10:30:29;;;;;;;;;;;;;;;18.26;69.95;101179.69;5041575;28;20519;-78
2022/06/27 10:32:54;;;;;;;;;;;;;;;18.27;71.21;101184.03;5031960;28;19931;-78
2022/06/27 10:35:23;;;;;;;;;;;;;;;18.24;71.54;101189.44;5042133;28;20311;-78
2022/06/27 10:37:49;;;;;;;;;;;;;;;18.21;70.01;101194.84;5039908;28;19943;-78
2022/06/27 10:40:20;;;;;;;;;;;;;;;18.21;69.75;101201.88;5044779;28;19921;-78
2022/06/27 10:42:48;;;;;;;;;;;;;;;18.21;70.65;101207.13;5028810;28;19912;-78
2022/06/27 10:45:20;;;;;;;;;;;;;;;18.15;69.07;101197.75;5030350;28;19963;-78
2022/06/27 10:47:48;;;;;;;;;;;;;;;18.18;69.70;101207.28;5026412;28;20285;-78
2022/06/27 10:50:15;;;;;;;;;;;;;;;18.21;70.00;101200.09;5042328;28;20324;-77
2022/06/27 10:52:41;;;;;;;;;;;;;;;18.25;70.26;101198.16;5045963;28;20542;-77
2022/06/27 10:55:21;;;;;;;;;;;;;;;18.30;69.18;101199.69;5044922;28;19964;-78
2022/06/27 10:57:47;;;;;;;;;;;;;;;18.35;69.64;101196.81;5048154;28;20016;-78
2022/06/27 11:00:32;;;;;;;;;;;;;;;18.37;68.26;101201.09;5045606;28;20071;-78
2022/06/27 11:02:59;;;;;;;;;;;;;;;18.31;69.40;101195.25;5044448;28;19924;-78
2022/06/27 11:05:24;;;;;;;;;;;;;;;18.32;68.89;101189.06;5051763;28;20253;-78
2022/06/27 11:07:51;;;;;;;;;;;;;;;18.40;69.52;101192.19;5046459;28;20003;-78
2022/06/27 11:10:17;;;;;;;;;;;;;;;18.35;68.10;101181.03;5049400;28;20398;-78
2022/06/27 11:12:42;;;;;;;;;;;;;;;18.38;69.55;101175.63;5049085;28;19917;-78
2022/06/27 11:15:09;;;;;;;;;;;;;;;18.40;70.82;101168.53;5047801;28;19927;-78
2022/06/27 11:17:34;;;;;;;;;;;;;;;18.38;68.73;101171.25;5047465;28;19966;-78
2022/06/27 11:20:32;;;;;;;;;;;;;;;18.40;68.49;101163.25;5048833;28;19921;-78
2022/06/27 11:22:59;;;;;;;;;;;;;;;18.42;69.18;101179.84;5015003;28;19935;-78
2022/06/27 11:25:27;;;;;;;;;;;;;;;18.42;69.42;101185.09;5037809;28;19917;-78
2022/06/27 11:27:57;;;;;;;;;;;;;;;18.31;68.28;101177.69;5044465;28;19924;-77
2022/06/27 11:33:23;;;;;;;;;;;;;;;18.35;67.73;101181.03;5044265;28;19927;-77
2022/06/27 11:35:49;;;;;;;;;;;;;;;18.35;66.47;101173.16;5031748;28;19967;-78
2022/06/27 11:38:51;;;;;;;;;;;;;;;18.40;68.83;101177.28;5036615;28;19971;-78
2022/06/27 11:41:24;;;;;;;;;;;;;;;18.43;69.59;101171.00;4970658;28;19926;-77
2022/06/27 11:44:02;;;;;;;;;;;;;;;18.46;69.82;101177.00;5037104;28;19924;-78
2022/06/27 11:46:35;;;;;;;;;;;;;;;18.48;69.19;101177.78;5050191;28;19983;-78
2022/06/27 11:49:04;;;;;;;;;;;;;;;18.45;68.38;101180.56;5049163;28;20031;-78
2022/06/27 11:51:31;;;;;;;;;;;;;;;18.47;68.83;101185.75;5051066;28;19977;-77
2022/06/27 11:53:59;;;;;;;;;;;;;;;18.50;69.00;101183.84;5052625;28;19925;-78
2022/06/27 11:56:25;;;;;;;;;;;;;;;18.53;68.76;101177.59;5046915;28;20353;-78
2022/06/27 11:58:52;;;;;;;;;;;;;;;18.60;68.29;101184.28;5040055;28;19925;-77
2022/06/27 12:01:18;;;;;;;;;;;;;;;18.64;68.43;101172.66;5048237;28;19932;-77
2022/06/27 12:04:03;;;;;;;;;;;;;;;18.67;66.56;101177.78;5048685;28;19920;-78
2022/06/27 12:06:28;;;;;;;;;;;;;;;18.69;68.11;101181.19;5049604;28;20018;-77
2022/06/27 12:08:57;;;;;;;;;;;;;;;18.66;67.29;101182.19;5037671;28;19990;-77
2022/06/27 12:11:27;;;;;;;;;;;;;;;18.77;66.17;101175.56;5039888;28;20015;-77
2022/06/27 12:13:58;;;;;;;;;;;;;;;18.77;65.18;101165.88;5046646;28;19924;-77
2022/06/27 12:16:23;;;;;;;;;;;;;;;18.77;64.30;101162.41;5050307;28;19925;-78
2022/06/27 12:18:51;;;;;;;;;;;;;;;18.78;65.39;101161.47;5051219;28;20415;-77
2022/06/27 12:21:17;;;;;;;;;;;;;;;18.78;65.21;101162.31;5042988;28;19924;-78
2022/06/27 12:23:43;;;;;;;;;;;;;;;18.81;64.19;101162.16;5046649;28;19927;-78
2022/06/27 12:26:09;;;;;;;;;;;;;;;18.82;63.55;101174.41;5051331;28;19921;-78
2022/06/27 12:28:35;;;;;;;;;;;;;;;18.85;63.00;101179.53;5056387;28;19928;-78
2022/06/27 12:31:00;;;;;;;;;;;;;;;18.91;63.04;101186.25;5048820;28;19921;-78
2022/06/27 12:33:26;;;;;;;;;;;;;;;18.97;63.23;101186.81;5049352;28;19929;-78
2022/06/27 12:35:51;;;;;;;;;;;;;;;18.92;62.58;101193.25;5046331;28;19948;-77
2022/06/27 12:38:17;;;;;;;;;;;;;;;18.94;63.92;101200.13;5049690;28;19929;-78
2022/06/27 12:40:42;;;;;;;;;;;;;;;18.87;64.17;101201.34;5045492;28;20403;-78